createdAt,value
2023-01-09T00:00:46.806Z,1.33
2023-01-09T00:03:13.607Z,2.10
2023-01-09T00:05:40.442Z,2.70
2023-01-09T00:08:07.321Z,3.35
2023-01-09T00:10:33.988Z,1.83
2023-01-09T00:13:00.786Z,2.67
2023-01-09T00:15:27.715Z,1.67
2023-01-09T00:17:54.441Z,2.47
2023-01-09T00:20:21.243Z,3.25
2023-01-09T00:22:48.111Z,2.00
2023-01-09T00:25:14.749Z,2.80
2023-01-09T00:27:41.731Z,1.40
2023-01-09T00:30:09.408Z,1.67
2023-01-09T00:32:36.133Z,5.13
2023-01-09T00:35:02.918Z,3.28
2023-01-09T00:37:29.564Z,3.35
2023-01-09T00:39:56.175Z,2.58
2023-01-09T00:42:26.496Z,2.40
2023-01-09T00:44:58.933Z,2.60
2023-01-09T00:47:34.223Z,2.20
2023-01-09T00:50:10.277Z,4.38
2023-01-09T00:52:38.192Z,2.72
2023-01-09T00:55:06.204Z,1.75
2023-01-09T00:57:33.145Z,5.93
2023-01-09T01:00:00.505Z,4.50
2023-01-09T01:02:27.441Z,3.95
2023-01-09T01:05:12.815Z,2.65
2023-01-09T01:07:39.736Z,2.15
2023-01-09T01:10:10.480Z,2.50
2023-01-09T01:12:38.687Z,2.10
2023-01-09T01:15:07.070Z,2.20
2023-01-09T01:17:35.089Z,2.75
2023-01-09T01:20:01.816Z,5.68
2023-01-09T01:22:28.512Z,2.95
2023-01-09T01:24:55.231Z,3.05
2023-01-09T01:27:21.852Z,6.55
2023-01-09T01:29:49.465Z,2.70
2023-01-09T01:32:16.235Z,1.45
2023-01-09T01:34:43.142Z,4.20
2023-01-09T01:37:10.280Z,2.83
2023-01-09T01:39:36.955Z,2.42
2023-01-09T01:42:05.220Z,2.65
2023-01-09T01:44:56.564Z,2.38
2023-01-09T01:47:28.941Z,2.67
2023-01-09T01:49:56.647Z,3.30
2023-01-09T01:52:24.888Z,3.33
2023-01-09T01:54:52.017Z,3.47
2023-01-09T01:57:18.759Z,4.45
2023-01-09T01:59:50.865Z,3.67
2023-01-09T02:02:22.045Z,4.85
2023-01-09T02:04:50.863Z,4.45
2023-01-09T02:07:17.643Z,2.35
2023-01-09T02:09:47.314Z,4.03
2023-01-09T02:12:20.160Z,4.72
2023-01-09T02:14:47.994Z,4.97
2023-01-09T02:17:35.634Z,2.20
2023-01-09T02:20:36.120Z,3.50
2023-01-09T02:23:17.550Z,2.58
2023-01-09T02:26:03.086Z,8.93
2023-01-09T02:28:29.660Z,6.25
2023-01-09T02:31:09.492Z,4.82
2023-01-09T02:33:39.447Z,4.72
2023-01-09T02:36:31.787Z,7.55
2023-01-09T02:39:14.684Z,4.28
2023-01-09T02:42:06.532Z,6.63
2023-01-09T02:44:37.120Z,3.22
2023-01-09T02:47:15.757Z,4.93
2023-01-09T02:50:05.936Z,2.30
2023-01-09T02:53:10.551Z,6.55
2023-01-09T02:55:51.962Z,3.50
2023-01-09T02:58:37.258Z,3.35
2023-01-09T03:01:24.140Z,4.28
2023-01-09T03:04:24.684Z,5.63
2023-01-09T03:07:14.678Z,4.53
2023-01-09T03:09:43.220Z,4.75
2023-01-09T03:12:18.281Z,6.07
2023-01-09T03:14:49.094Z,3.60
2023-01-09T03:17:23.532Z,3.08
2023-01-09T03:22:18.034Z,3.30
2023-01-09T03:24:44.737Z,7.13
2023-01-09T03:27:11.491Z,5.78
2023-01-09T03:29:38.117Z,2.42
2023-01-09T03:32:05.737Z,2.97
2023-01-09T03:34:32.430Z,4.35
2023-01-09T03:36:59.147Z,5.22
2023-01-09T03:39:25.947Z,4.22
2023-01-09T03:41:52.581Z,4.75
2023-01-09T03:44:19.476Z,4.57
2023-01-09T03:46:46.325Z,6.22
2023-01-09T03:49:13.888Z,8.27
2023-01-09T03:51:40.583Z,8.80
2023-01-09T03:54:07.738Z,3.92
2023-01-09T03:56:34.820Z,4.63
2023-01-09T03:59:01.392Z,2.85
2023-01-09T04:01:28.181Z,5.40
2023-01-09T04:03:55.079Z,6.50
2023-01-09T04:06:21.725Z,3.75
2023-01-09T04:08:48.388Z,3.78
2023-01-09T04:11:21.446Z,5.07
2023-01-09T04:13:48.162Z,4.32
2023-01-09T04:16:19.483Z,3.75
2023-01-09T04:18:47.131Z,6.97
2023-01-09T04:21:13.766Z,1.73
2023-01-09T04:23:40.543Z,4.70
2023-01-09T04:26:07.896Z,3.85
2023-01-09T04:28:34.645Z,6.82
2023-01-09T04:31:02.507Z,6.88
2023-01-09T04:33:29.390Z,4.55
2023-01-09T04:35:56.016Z,11.25
2023-01-09T04:38:22.863Z,6.13
2023-01-09T04:40:49.916Z,5.13
2023-01-09T04:43:16.629Z,5.38
2023-01-09T04:45:44.963Z,5.57
2023-01-09T04:48:11.770Z,4.03
2023-01-09T04:50:38.435Z,4.78
2023-01-09T04:53:05.910Z,4.38
2023-01-09T04:55:33.084Z,7.85
2023-01-09T04:57:59.839Z,5.18
2023-01-09T05:00:26.561Z,2.92
2023-01-09T05:02:53.227Z,7.18
2023-01-09T05:05:20.022Z,6.47
2023-01-09T05:07:46.658Z,4.00
2023-01-09T05:10:13.480Z,2.42
2023-01-09T05:12:40.194Z,4.78
2023-01-09T05:15:08.713Z,5.57
2023-01-09T05:17:35.753Z,3.58
2023-01-09T05:20:02.353Z,4.72
2023-01-09T05:22:29.063Z,5.45
2023-01-09T05:24:55.802Z,6.25
2023-01-09T05:27:23.108Z,11.13
2023-01-09T05:29:49.754Z,4.35
2023-01-09T05:32:16.891Z,6.85
2023-01-09T05:34:44.385Z,4.07
2023-01-09T05:37:11.165Z,5.82
2023-01-09T05:39:37.811Z,6.10
2023-01-09T05:42:04.611Z,5.75
2023-01-09T05:44:31.308Z,6.18
2023-01-09T05:46:57.953Z,12.20
2023-01-09T05:49:24.564Z,5.82
2023-01-09T05:51:51.148Z,7.68
2023-01-09T05:54:17.731Z,6.57
2023-01-09T05:56:44.373Z,5.07
2023-01-09T05:59:11.053Z,3.42
2023-01-09T06:01:37.646Z,5.65
2023-01-09T06:04:04.395Z,4.57
2023-01-09T06:06:31.300Z,6.07
2023-01-09T06:08:57.965Z,5.30
2023-01-09T06:11:24.625Z,5.38
2023-01-09T06:13:51.318Z,4.82
2023-01-09T06:16:18.364Z,8.00
2023-01-09T06:18:45.193Z,3.80
2023-01-09T06:21:11.839Z,6.95
2023-01-09T06:23:38.702Z,2.65
2023-01-09T06:26:05.323Z,7.07
2023-01-09T06:28:32.095Z,8.35
2023-01-09T06:30:58.838Z,3.70
2023-01-09T06:33:25.543Z,4.63
2023-01-09T06:35:52.291Z,7.70
2023-01-09T06:38:19.347Z,4.80
2023-01-09T06:40:46.183Z,3.92
2023-01-09T06:43:13.061Z,5.05
2023-01-09T06:45:39.779Z,5.55
2023-01-09T06:48:09.066Z,6.50
2023-01-09T06:50:35.846Z,5.47
2023-01-09T06:53:03.289Z,6.25
2023-01-09T06:55:29.968Z,10.65
2023-01-09T06:57:56.796Z,7.25
2023-01-09T07:00:23.686Z,14.57
2023-01-09T07:02:50.390Z,5.60
2023-01-09T07:05:17.127Z,7.72
2023-01-09T07:07:43.825Z,3.33
2023-01-09T07:10:11.149Z,4.75
2023-01-09T07:12:37.755Z,7.70
2023-01-09T07:15:05.109Z,5.68
2023-01-09T07:17:32.693Z,4.85
2023-01-09T07:20:00.187Z,4.85
2023-01-09T07:22:26.859Z,4.78
2023-01-09T07:24:53.600Z,8.50
2023-01-09T07:27:20.273Z,6.05
2023-01-09T07:29:47.047Z,3.78
2023-01-09T07:32:13.842Z,5.20
2023-01-09T07:34:40.480Z,5.50
2023-01-09T07:37:07.247Z,4.32
2023-01-09T07:39:33.958Z,5.38
2023-01-09T07:42:00.520Z,5.13
2023-01-09T07:44:27.254Z,3.83
2023-01-09T07:46:53.888Z,4.53
2023-01-09T07:49:20.558Z,2.53
2023-01-09T07:51:48.262Z,6.45
2023-01-09T07:54:15.003Z,4.03
2023-01-09T07:56:41.641Z,6.03
2023-01-09T07:59:08.282Z,1.52
2023-01-09T08:01:35.205Z,5.90
2023-01-09T08:04:02.015Z,3.40
2023-01-09T08:06:28.651Z,1.27
2023-01-09T08:08:55.373Z,1.35
2023-01-09T08:11:22.041Z,1.58
2023-01-09T08:13:48.642Z,1.65
2023-01-09T08:16:15.748Z,1.45
2023-01-09T08:18:42.489Z,1.58
2023-01-09T08:21:11.144Z,1.42
2023-01-09T08:23:38.118Z,4.32
2023-01-09T08:26:05.318Z,1.70
2023-01-09T08:28:32.474Z,4.57
2023-01-09T08:30:59.081Z,0.90
2023-01-09T08:33:26.804Z,2.30
2023-01-09T08:35:54.121Z,1.98
2023-01-09T08:38:22.447Z,2.78
2023-01-09T08:40:49.227Z,1.85
2023-01-09T08:43:34.413Z,0.63
2023-01-09T08:46:20.085Z,1.15
2023-01-09T08:48:48.497Z,1.75
2023-01-09T08:51:15.565Z,1.75
2023-01-09T08:53:42.346Z,3.55
2023-01-09T08:56:10.099Z,4.00
2023-01-09T08:58:36.669Z,2.88
2023-01-09T09:01:06.729Z,2.35
2023-01-09T09:03:33.432Z,2.30
2023-01-09T09:06:00.105Z,1.13
2023-01-09T09:08:26.872Z,3.17
2023-01-09T09:10:53.607Z,1.58
2023-01-09T09:13:20.451Z,5.47
2023-01-09T09:15:47.150Z,2.60
2023-01-09T09:18:13.980Z,2.45
2023-01-09T09:20:40.678Z,3.00
2023-01-09T09:23:08.365Z,3.83
2023-01-09T09:25:35.443Z,7.07
2023-01-09T09:28:02.188Z,2.67
2023-01-09T09:30:28.989Z,3.00
2023-01-09T09:32:55.892Z,4.68
2023-01-09T09:35:23.178Z,3.75
2023-01-09T09:37:58.062Z,6.47
2023-01-09T09:41:02.109Z,6.88
2023-01-09T09:43:55.281Z,6.28
2023-01-09T09:46:44.729Z,2.88
2023-01-09T09:49:55.839Z,6.50
2023-01-09T09:52:39.106Z,8.20
2023-01-09T09:55:21.351Z,6.88
2023-01-09T09:57:49.243Z,9.02
2023-01-09T10:00:19.148Z,8.90
2023-01-09T10:03:08.160Z,9.30
2023-01-09T10:05:39.783Z,10.00
2023-01-09T10:08:32.939Z,4.72
2023-01-09T10:11:00.216Z,6.82
2023-01-09T10:13:45.560Z,5.05
2023-01-09T10:16:41.409Z,5.97
2023-01-09T10:19:32.074Z,7.10
2023-01-09T10:22:25.223Z,7.18
2023-01-09T10:25:12.606Z,5.80
2023-01-09T10:28:00.587Z,6.00
2023-01-09T10:30:42.281Z,5.70
2023-01-09T10:33:35.974Z,6.47
2023-01-09T10:36:27.591Z,9.98
2023-01-09T10:38:58.272Z,9.73
2023-01-09T10:41:33.586Z,5.03
2023-01-09T10:44:21.752Z,10.63
2023-01-09T10:46:56.401Z,10.15
2023-01-09T10:49:25.263Z,6.07
2023-01-09T10:51:55.696Z,4.85
2023-01-09T10:54:26.152Z,7.28
2023-01-09T10:57:00.557Z,4.68
2023-01-09T11:01:54.118Z,5.25
2023-01-09T11:04:26.827Z,6.13
2023-01-09T11:07:00.021Z,4.88
2023-01-09T11:10:04.638Z,5.28
2023-01-09T11:12:33.409Z,4.43
2023-01-09T11:15:30.600Z,8.52
2023-01-09T11:18:20.992Z,3.38
2023-01-09T11:20:48.355Z,6.22
2023-01-09T11:23:30.348Z,7.68
2023-01-09T11:25:59.902Z,6.65
2023-01-09T11:28:26.589Z,5.82
2023-01-09T11:31:02.313Z,11.05
2023-01-09T11:33:37.776Z,7.30
2023-01-09T11:36:15.587Z,8.00
2023-01-09T11:38:50.744Z,7.30
2023-01-09T11:41:20.770Z,5.47
2023-01-09T11:43:50.289Z,5.47
2023-01-09T11:46:35.409Z,6.95
2023-01-09T11:49:19.745Z,7.45
2023-01-09T11:51:46.981Z,9.82
2023-01-09T11:54:25.768Z,4.65
2023-01-09T11:56:52.896Z,7.85
2023-01-09T11:59:27.460Z,7.13
2023-01-09T12:02:00.047Z,7.28
2023-01-09T12:04:35.430Z,13.25
2023-01-09T12:07:23.908Z,5.93
2023-01-09T12:09:55.986Z,8.23
2023-01-09T12:12:50.424Z,7.97
2023-01-09T12:15:26.022Z,8.38
2023-01-09T12:17:58.708Z,9.07
2023-01-09T12:20:33.310Z,11.20
2023-01-09T12:23:30.826Z,11.07
2023-01-09T12:26:15.562Z,8.15
2023-01-09T12:29:06.371Z,7.82
2023-01-09T12:32:06.052Z,9.43
2023-01-09T12:35:01.024Z,9.85
2023-01-09T12:37:46.659Z,17.00
2023-01-09T12:40:16.458Z,11.20
2023-01-09T12:43:16.169Z,11.07
2023-01-09T12:46:12.755Z,8.00
2023-01-09T12:48:48.713Z,11.65
2023-01-09T12:51:24.701Z,10.40
2023-01-09T12:54:12.452Z,12.05
2023-01-09T12:56:45.352Z,11.93
2023-01-09T12:59:31.868Z,8.52
2023-01-09T13:02:14.384Z,11.13
2023-01-09T13:04:54.476Z,8.55
2023-01-09T13:07:26.200Z,12.52
2023-01-09T13:10:07.340Z,15.20
2023-01-09T13:12:39.490Z,14.23
2023-01-09T13:15:19.748Z,19.75
2023-01-09T13:18:14.537Z,10.10
2023-01-09T13:23:21.378Z,11.70
2023-01-09T13:25:51.882Z,5.45
2023-01-09T13:28:23.920Z,5.20
2023-01-09T13:31:05.631Z,10.48
2023-01-09T13:33:39.939Z,10.32
2023-01-09T13:36:06.729Z,8.13
2023-01-09T13:38:38.176Z,7.30
2023-01-09T13:41:35.668Z,6.32
2023-01-09T13:44:05.129Z,12.68
2023-01-09T13:46:41.138Z,12.45
2023-01-09T13:49:42.936Z,6.25
2023-01-09T13:52:29.712Z,9.55
2023-01-09T13:54:58.086Z,8.48
2023-01-09T13:57:39.689Z,9.20
2023-01-09T14:00:12.493Z,7.22
2023-01-09T14:02:39.154Z,6.97
2023-01-09T14:05:11.796Z,8.95
2023-01-09T14:07:45.362Z,9.95
2023-01-09T14:10:25.877Z,5.47
2023-01-09T14:12:55.724Z,7.53
2023-01-09T14:15:34.903Z,10.95
2023-01-09T14:18:07.523Z,10.75
2023-01-09T14:20:38.527Z,11.73
2023-01-09T14:23:31.300Z,9.85
2023-01-09T14:25:54.850Z,11.57
2023-01-09T14:28:22.859Z,15.48
2023-01-09T14:30:52.425Z,12.88
2023-01-09T14:33:19.123Z,12.65
2023-01-09T14:36:09.100Z,10.68
2023-01-09T14:38:46.395Z,8.85
2023-01-09T14:41:45.434Z,12.98
2023-01-09T14:44:43.775Z,12.52
2023-01-09T14:47:39.321Z,11.52
2023-01-09T14:50:14.980Z,15.50
2023-01-09T14:52:48.063Z,10.25
2023-01-09T14:55:35.215Z,12.88
2023-01-09T14:58:13.024Z,8.02
2023-01-09T15:00:49.030Z,13.57
2023-01-09T15:03:16.414Z,11.77
2023-01-09T15:05:45.970Z,8.82
2023-01-09T15:08:18.503Z,15.98
2023-01-09T15:10:46.910Z,12.18
2023-01-09T15:13:18.919Z,10.50
2023-01-09T15:15:47.676Z,13.98
2023-01-09T15:18:24.833Z,11.80
2023-01-09T15:21:01.241Z,13.02
2023-01-09T15:23:30.385Z,10.23
2023-01-09T15:26:27.129Z,13.52
2023-01-09T15:29:01.726Z,16.23
2023-01-09T15:31:29.397Z,10.20
2023-01-09T15:33:57.045Z,11.45
2023-01-09T15:36:28.071Z,11.25
2023-01-09T15:38:55.311Z,15.25
2023-01-09T15:41:46.052Z,15.50
2023-01-09T15:44:19.536Z,13.02
2023-01-09T15:46:46.851Z,13.03
2023-01-09T15:49:14.212Z,15.68
2023-01-09T15:51:43.802Z,13.65
2023-01-09T15:54:30.175Z,13.35
2023-01-09T15:57:24.991Z,11.50
2023-01-09T15:59:56.072Z,17.40
2023-01-09T16:02:43.016Z,12.10
2023-01-09T16:05:15.150Z,14.77
2023-01-09T16:07:49.303Z,10.55
2023-01-09T16:10:26.433Z,11.48
2023-01-09T16:12:54.704Z,11.60
2023-01-09T16:15:22.091Z,20.13
2023-01-09T16:18:13.949Z,20.65
2023-01-09T16:20:40.828Z,7.40
2023-01-09T16:23:24.067Z,10.88
2023-01-09T16:26:01.901Z,11.43
2023-01-09T16:28:30.918Z,12.45
2023-01-09T16:31:08.726Z,9.43
2023-01-09T16:33:35.860Z,14.30
2023-01-09T16:36:04.984Z,16.20
2023-01-09T16:38:31.597Z,8.55
2023-01-09T16:41:22.385Z,6.82
2023-01-09T16:43:50.156Z,12.88
2023-01-09T16:46:19.855Z,14.90
2023-01-09T16:48:47.389Z,9.13
2023-01-09T16:51:21.853Z,12.27
2023-01-09T16:56:24.350Z,14.13
2023-01-09T16:58:53.407Z,9.90
2023-01-09T17:01:20.738Z,9.77
2023-01-09T17:03:48.226Z,8.77
2023-01-09T17:06:30.687Z,12.30
2023-01-09T17:08:58.206Z,6.38
2023-01-09T17:11:31.926Z,9.52
2023-01-09T17:13:59.834Z,6.65
2023-01-09T17:16:27.799Z,6.50
2023-01-09T17:18:55.013Z,7.55
2023-01-09T17:21:24.645Z,8.93
2023-01-09T17:24:11.668Z,4.43
2023-01-09T17:26:59.927Z,4.78
2023-01-09T17:29:27.329Z,4.72
2023-01-09T17:31:54.137Z,3.53
2023-01-09T17:34:20.985Z,8.32
2023-01-09T17:36:47.741Z,4.38
2023-01-09T17:39:16.254Z,10.18
2023-01-09T17:41:43.391Z,4.45
2023-01-09T17:44:11.420Z,4.35
2023-01-09T17:46:42.325Z,7.72
2023-01-09T17:49:20.280Z,4.47
2023-01-09T17:51:47.142Z,6.93
2023-01-09T17:54:14.590Z,7.00
2023-01-09T17:56:50.978Z,6.13
2023-01-09T17:59:18.378Z,8.60
2023-01-09T18:01:45.525Z,3.85
2023-01-09T18:04:12.415Z,6.00
2023-01-09T18:06:39.038Z,4.65
2023-01-09T18:09:07.391Z,8.10
2023-01-09T18:11:34.463Z,2.78
2023-01-09T18:14:01.266Z,3.88
2023-01-09T18:16:28.662Z,4.70
2023-01-09T18:18:57.677Z,8.88
2023-01-09T18:21:27.156Z,4.07
2023-01-09T18:23:54.151Z,5.28
2023-01-09T18:26:21.719Z,6.78
2023-01-09T18:29:09.198Z,7.47
2023-01-09T18:31:35.933Z,6.80
2023-01-09T18:34:05.285Z,4.53
2023-01-09T18:36:31.980Z,7.90
2023-01-09T18:39:01.033Z,7.90
2023-01-09T18:41:28.606Z,4.20
2023-01-09T18:43:57.591Z,10.20
2023-01-09T18:46:24.765Z,8.70
2023-01-09T18:48:53.443Z,5.18
2023-01-09T18:51:21.119Z,7.63
2023-01-09T18:53:48.260Z,5.60
2023-01-09T18:56:15.398Z,7.18
2023-01-09T18:58:42.083Z,6.03
2023-01-09T19:01:09.319Z,5.18
2023-01-09T19:03:36.105Z,8.77
2023-01-09T19:06:04.117Z,8.20
2023-01-09T19:08:32.076Z,9.70
2023-01-09T19:10:59.798Z,7.45
2023-01-09T19:13:31.046Z,7.63
2023-01-09T19:15:58.686Z,10.32
2023-01-09T19:18:26.154Z,12.38
2023-01-09T19:20:53.879Z,5.57
2023-01-09T19:23:24.450Z,7.68
2023-01-09T19:25:52.266Z,5.45
2023-01-09T19:28:19.815Z,6.93
2023-01-09T19:30:46.694Z,12.02
2023-01-09T19:33:13.531Z,9.32
2023-01-09T19:35:40.202Z,8.27
2023-01-09T19:38:07.300Z,11.10
2023-01-09T19:40:33.934Z,9.05
2023-01-09T19:43:01.028Z,8.50
2023-01-09T19:45:27.755Z,9.80
2023-01-09T19:47:54.384Z,8.80
2023-01-09T19:50:21.938Z,10.18
2023-01-09T19:52:48.722Z,11.77
2023-01-09T19:55:15.458Z,10.10
2023-01-09T19:57:44.000Z,10.57
2023-01-09T20:00:11.682Z,14.23
2023-01-09T20:02:38.290Z,12.55
2023-01-09T20:05:05.324Z,8.18
2023-01-09T20:07:32.149Z,8.88
2023-01-09T20:09:58.732Z,9.75
2023-01-09T20:12:25.401Z,15.90
2023-01-09T20:14:52.050Z,12.15
2023-01-09T20:17:19.734Z,17.73
2023-01-09T20:19:46.448Z,18.75
2023-01-09T20:22:13.491Z,12.65
2023-01-09T20:24:40.331Z,14.18
2023-01-09T20:27:07.230Z,8.10
2023-01-09T20:29:34.309Z,7.63
2023-01-09T20:32:01.406Z,9.10
2023-01-09T20:34:28.159Z,6.80
2023-01-09T20:36:54.881Z,6.97
2023-01-09T20:39:22.714Z,13.20
2023-01-09T20:41:49.325Z,8.93
2023-01-09T20:44:16.259Z,8.23
2023-01-09T20:46:48.573Z,9.32
2023-01-09T20:49:18.412Z,6.82
2023-01-09T20:51:48.112Z,10.52
2023-01-09T20:54:15.783Z,9.45
2023-01-09T20:56:42.524Z,6.45
2023-01-09T20:59:14.915Z,4.90
2023-01-09T21:01:41.629Z,9.68
2023-01-09T21:04:09.016Z,9.38
2023-01-09T21:06:36.044Z,12.85
2023-01-09T21:09:03.988Z,9.38
2023-01-09T21:11:30.858Z,8.02
2023-01-09T21:13:57.523Z,15.13
2023-01-09T21:16:24.967Z,13.63
2023-01-09T21:18:53.476Z,16.08
2023-01-09T21:21:24.121Z,12.88
2023-01-09T21:23:53.839Z,15.35
2023-01-09T21:26:24.337Z,10.95
2023-01-09T21:28:54.845Z,6.88
2023-01-09T21:31:25.696Z,14.05
2023-01-09T21:33:54.468Z,16.00
